Time;durP1;ratioP1;P1;durP2;ratioP2;P2;SDS_P1;SDS_P2;PMS_P1;PMS_P2;Temp;Humidity;BMP_temperature;BMP_pressure;BME280_temperature;BME280_humidity;BME280_pressure;Samples;Min_cycle;Max_cycle;Signal;HPM_P1;HPM_P2
2021/09/19 00:02:13;;;;;;;11.40;8.27;;;13.80;88.40;;;;;;5053525;28;20032;-48
2021/09/19 00:04:39;;;;;;;9.65;7.53;;;13.80;88.00;;;;;;5052030;28;20025;-50
2021/09/19 00:07:04;;;;;;;11.02;8.00;;;13.80;88.10;;;;;;5053306;28;20067;-48
2021/09/19 00:09:30;;;;;;;9.13;8.18;;;13.80;88.10;;;;;;5053229;28;20017;-50
2021/09/19 00:11:56;;;;;;;9.18;8.13;;;13.80;88.30;;;;;;5053586;28;20048;-48
2021/09/19 00:14:21;;;;;;;9.85;7.90;;;13.70;88.30;;;;;;5053166;28;20025;-48
2021/09/19 00:16:48;;;;;;;9.68;6.82;;;13.60;88.80;;;;;;5053302;28;20025;-48
2021/09/19 00:19:14;;;;;;;9.43;8.05;;;13.70;88.80;;;;;;5051660;28;20039;-48
2021/09/19 00:21:40;;;;;;;12.38;8.27;;;13.70;88.90;;;;;;5053038;28;20057;-49
2021/09/19 00:24:06;;;;;;;10.75;8.18;;;13.70;88.80;;;;;;5052952;28;20021;-50
2021/09/19 00:26:32;;;;;;;8.75;7.55;;;13.70;88.40;;;;;;5053665;28;20484;-49
2021/09/19 00:28:58;;;;;;;9.57;7.78;;;13.60;88.60;;;;;;5053813;28;20025;-48
2021/09/19 00:31:24;;;;;;;15.10;9.10;;;13.50;89.40;;;;;;5053211;28;20103;-51
2021/09/19 00:33:49;;;;;;;13.02;7.50;;;13.50;88.90;;;;;;5053099;28;20025;-48
2021/09/19 00:36:15;;;;;;;9.60;7.95;;;13.50;88.90;;;;;;5052972;28;20036;-48
2021/09/19 00:38:41;;;;;;;10.55;7.10;;;13.40;89.20;;;;;;5053210;28;20036;-51
2021/09/19 00:41:06;;;;;;;8.63;7.28;;;13.60;89.10;;;;;;5052850;28;20029;-48
2021/09/19 00:43:32;;;;;;;11.77;7.28;;;13.50;88.60;;;;;;5052961;28;20027;-50
2021/09/19 00:45:58;;;;;;;9.73;7.97;;;13.50;89.30;;;;;;5053365;28;20052;-51
2021/09/19 00:48:23;;;;;;;9.95;8.15;;;13.50;89.00;;;;;;5053317;28;20552;-50
2021/09/19 00:50:49;;;;;;;9.57;7.88;;;13.50;89.10;;;;;;5052352;28;20021;-47
2021/09/19 00:53:15;;;;;;;8.95;8.10;;;13.50;88.90;;;;;;5052927;28;20025;-48
2021/09/19 00:55:43;;;;;;;9.35;7.93;;;13.40;88.90;;;;;;5051457;28;20075;-48
2021/09/19 00:58:11;;;;;;;10.82;8.50;;;13.40;89.30;;;;;;5052914;28;20036;-49
2021/09/19 01:00:38;;;;;;;10.95;8.48;;;13.40;89.30;;;;;;5052763;28;20144;-47
2021/09/19 01:03:04;;;;;;;9.00;8.10;;;13.40;89.40;;;;;;5052527;28;20033;-49
2021/09/19 01:05:31;;;;;;;10.55;7.65;;;13.40;89.20;;;;;;5052263;28;20031;-50
2021/09/19 01:07:58;;;;;;;11.93;8.05;;;13.40;88.80;;;;;;5052312;28;20399;-48
2021/09/19 01:10:25;;;;;;;13.73;7.78;;;13.30;89.00;;;;;;5052542;28;20364;-48
2021/09/19 01:12:54;;;;;;;9.13;7.72;;;13.30;89.30;;;;;;5052333;28;20021;-50
2021/09/19 01:15:21;;;;;;;10.55;8.10;;;13.30;89.60;;;;;;5052616;28;20025;-48
2021/09/19 01:17:46;;;;;;;12.32;7.30;;;13.20;89.90;;;;;;5051124;28;20052;-48
2021/09/19 01:20:13;;;;;;;9.82;8.25;;;13.30;89.50;;;;;;5052785;28;20021;-50
2021/09/19 01:22:46;;;;;;;10.38;7.97;;;13.30;89.50;;;;;;5052158;28;20495;-52
2021/09/19 01:25:15;;;;;;;10.40;8.35;;;13.30;89.30;;;;;;5052230;28;20029;-49
2021/09/19 01:27:43;;;;;;;17.95;9.55;;;13.40;89.10;;;;;;5052466;28;20021;-50
2021/09/19 01:30:10;;;;;;;12.75;9.82;;;13.30;89.40;;;;;;5052263;28;20033;-48
2021/09/19 01:32:40;;;;;;;12.32;9.48;;;13.30;89.50;;;;;;5052056;28;20063;-51
2021/09/19 01:35:07;;;;;;;10.60;8.60;;;13.30;89.60;;;;;;5052385;28;20025;-50
2021/09/19 01:37:32;;;;;;;11.93;9.95;;;13.20;89.70;;;;;;5052372;28;20826;-48
2021/09/19 01:39:58;;;;;;;13.05;9.48;;;13.30;89.60;;;;;;5052323;28;20060;-48
2021/09/19 01:42:27;;;;;;;10.43;9.32;;;13.30;89.60;;;;;;5052179;28;20037;-49
2021/09/19 01:44:53;;;;;;;14.80;9.68;;;13.20;89.60;;;;;;5052161;28;20021;-49
2021/09/19 01:47:18;;;;;;;10.43;8.20;;;13.10;90.00;;;;;;5052655;28;20449;-51
2021/09/19 01:49:48;;;;;;;13.07;9.95;;;13.00;90.30;;;;;;5052163;28;20091;-47
2021/09/19 01:52:16;;;;;;;11.98;9.70;;;13.00;90.70;;;;;;5052407;28;20025;-48
2021/09/19 01:54:41;;;;;;;11.02;9.30;;;12.90;90.50;;;;;;5052171;28;20437;-48
2021/09/19 01:57:07;;;;;;;12.57;10.15;;;12.80;90.60;;;;;;5052111;28;20021;-47
2021/09/19 01:59:34;;;;;;;13.18;9.52;;;13.10;90.70;;;;;;5051545;28;20457;-48
2021/09/19 02:02:00;;;;;;;16.15;11.27;;;13.10;90.30;;;;;;5051998;28;20029;-47
2021/09/19 02:04:25;;;;;;;13.70;11.18;;;13.20;90.20;;;;;;5055708;28;20028;-47
2021/09/19 02:06:51;;;;;;;11.60;9.98;;;13.00;90.10;;;;;;5055757;28;20025;-48
2021/09/19 02:09:16;;;;;;;14.93;10.55;;;12.90;90.60;;;;;;5055697;28;20035;-48
2021/09/19 02:11:42;;;;;;;15.07;11.80;;;12.90;91.00;;;;;;5055862;28;20430;-47
2021/09/19 02:14:08;;;;;;;15.25;10.65;;;12.90;90.60;;;;;;5055593;28;20036;-47
2021/09/19 02:16:33;;;;;;;13.73;10.85;;;12.80;90.70;;;;;;5055870;28;20556;-48
2021/09/19 02:18:59;;;;;;;17.33;11.20;;;12.80;91.10;;;;;;5055336;28;20057;-47
2021/09/19 02:21:25;;;;;;;19.17;11.90;;;12.90;91.10;;;;;;5055381;28;20021;-49
2021/09/19 02:23:51;;;;;;;15.65;11.68;;;12.90;90.80;;;;;;5055492;28;20029;-48
2021/09/19 02:26:17;;;;;;;14.88;11.52;;;12.90;90.90;;;;;;5055402;28;20078;-47
2021/09/19 02:28:43;;;;;;;17.63;11.77;;;12.90;90.80;;;;;;5055405;28;20025;-48
2021/09/19 02:31:09;;;;;;;14.95;12.27;;;13.00;90.60;;;;;;5055387;28;20036;-49
2021/09/19 02:33:34;;;;;;;19.10;13.32;;;13.00;90.50;;;;;;5055344;28;20025;-50
2021/09/19 02:36:00;;;;;;;18.05;12.07;;;12.90;90.60;;;;;;5055159;28;20326;-49
2021/09/19 02:38:26;;;;;;;15.80;12.82;;;12.90;90.90;;;;;;5056037;28;20025;-49
2021/09/19 02:40:52;;;;;;;19.25;11.98;;;12.90;90.90;;;;;;5053837;28;20025;-48
2021/09/19 02:43:19;;;;;;;16.33;12.57;;;12.80;90.80;;;;;;5055113;28;20039;-48
2021/09/19 02:45:45;;;;;;;19.27;13.43;;;12.70;91.20;;;;;;5055080;28;20028;-50
2021/09/19 02:48:11;;;;;;;19.08;12.77;;;12.70;91.40;;;;;;5055026;28;20118;-47
2021/09/19 02:50:37;;;;;;;22.23;13.68;;;12.80;91.50;;;;;;5055427;28;20019;-47
2021/09/19 02:53:02;;;;;;;16.73;12.85;;;12.70;91.40;;;;;;5055265;28;20377;-48
2021/09/19 02:55:28;;;;;;;15.57;12.45;;;12.70;91.50;;;;;;5055024;28;20021;-49
2021/09/19 02:57:54;;;;;;;20.13;12.88;;;12.60;91.70;;;;;;5055000;28;20032;-47
2021/09/19 03:00:22;;;;;;;17.95;12.93;;;12.50;91.90;;;;;;5054823;28;20048;-47
2021/09/19 03:02:49;;;;;;;17.15;12.77;;;12.60;91.90;;;;;;5054606;28;20024;-47
2021/09/19 03:05:15;;;;;;;17.80;12.60;;;12.70;92.10;;;;;;5053424;28;20024;-48
2021/09/19 03:07:41;;;;;;;19.13;13.52;;;12.60;91.80;;;;;;5054613;28;20021;-47
2021/09/19 03:10:08;;;;;;;17.13;13.35;;;12.60;92.20;;;;;;5054883;28;20377;-51
2021/09/19 03:12:34;;;;;;;22.25;15.35;;;12.60;91.90;;;;;;5055088;28;20033;-50
2021/09/19 03:15:00;;;;;;;18.70;14.38;;;12.60;92.20;;;;;;5053541;28;20040;-48
2021/09/19 03:17:26;;;;;;;26.55;16.65;;;12.70;92.00;;;;;;5054262;28;20056;-52
2021/09/19 03:19:51;;;;;;;21.27;14.98;;;12.80;91.80;;;;;;5054440;28;20025;-49
2021/09/19 03:22:17;;;;;;;26.80;17.65;;;12.70;91.40;;;;;;5054611;28;20053;-49
2021/09/19 03:24:43;;;;;;;28.25;16.10;;;12.70;91.60;;;;;;5054639;28;20032;-48
2021/09/19 03:27:08;;;;;;;21.08;15.35;;;12.70;91.60;;;;;;5054564;28;20025;-47
2021/09/19 03:29:34;;;;;;;23.55;15.63;;;12.60;91.80;;;;;;5054290;28;20481;-47
2021/09/19 03:31:59;;;;;;;21.98;15.68;;;12.60;91.90;;;;;;5054232;28;20053;-48
2021/09/19 03:34:25;;;;;;;22.80;15.85;;;12.50;91.50;;;;;;5054417;28;20025;-48
2021/09/19 03:36:51;;;;;;;26.08;16.23;;;12.60;91.90;;;;;;5054376;28;20470;-47
2021/09/19 03:39:17;;;;;;;22.33;15.75;;;12.40;91.70;;;;;;5055074;28;20048;-51
2021/09/19 03:41:42;;;;;;;20.90;14.73;;;12.40;91.90;;;;;;5054050;28;20374;-47
2021/09/19 03:44:10;;;;;;;28.05;15.55;;;12.30;92.30;;;;;;5054047;28;20029;-47
2021/09/19 03:46:36;;;;;;;23.00;16.38;;;12.40;92.30;;;;;;5054171;28;20021;-48
2021/09/19 03:49:03;;;;;;;22.00;15.27;;;12.50;92.10;;;;;;5053885;28;20025;-49
2021/09/19 03:51:29;;;;;;;21.67;15.32;;;12.40;91.90;;;;;;5054278;28;20025;-47
2021/09/19 03:53:55;;;;;;;23.45;16.20;;;12.30;92.30;;;;;;5052398;28;20036;-49
2021/09/19 03:56:20;;;;;;;26.83;16.98;;;12.40;92.20;;;;;;5053867;28;20403;-47
2021/09/19 03:58:46;;;;;;;23.75;16.50;;;12.30;92.10;;;;;;5053636;28;20021;-47
2021/09/19 04:01:12;;;;;;;25.83;16.95;;;12.40;92.30;;;;;;5053921;28;20473;-48
2021/09/19 04:03:37;;;;;;;19.92;15.30;;;12.40;92.10;;;;;;5053566;28;20025;-49
2021/09/19 04:06:03;;;;;;;23.52;15.35;;;12.40;92.10;;;;;;5053683;28;20021;-48
2021/09/19 04:08:29;;;;;;;22.50;15.95;;;12.40;92.30;;;;;;5053416;28;20017;-48
2021/09/19 04:10:55;;;;;;;28.85;19.02;;;12.30;92.10;;;;;;5053670;28;20028;-48
2021/09/19 04:13:20;;;;;;;22.95;16.33;;;12.30;92.20;;;;;;5053672;28;20471;-47
2021/09/19 04:15:46;;;;;;;22.08;16.02;;;12.30;92.20;;;;;;5053332;28;20381;-47
2021/09/19 04:18:13;;;;;;;23.27;16.38;;;12.30;92.10;;;;;;5052160;28;20162;-48
2021/09/19 04:20:38;;;;;;;22.67;16.35;;;12.30;92.10;;;;;;5053503;28;20059;-49
2021/09/19 04:23:04;;;;;;;25.70;17.10;;;12.30;92.00;;;;;;5053325;28;20029;-50
2021/09/19 04:25:30;;;;;;;26.95;18.33;;;12.30;92.20;;;;;;5053856;28;20029;-50
2021/09/19 04:27:55;;;;;;;25.50;17.73;;;12.30;92.20;;;;;;5053226;28;20465;-50
2021/09/19 04:30:21;;;;;;;24.00;17.40;;;12.30;92.20;;;;;;5053353;28;20104;-47
2021/09/19 04:32:47;;;;;;;27.92;17.45;;;12.30;92.20;;;;;;5053321;28;20064;-48
2021/09/19 04:35:12;;;;;;;29.02;19.20;;;12.30;92.40;;;;;;5052355;28;20464;-52
2021/09/19 04:37:38;;;;;;;30.08;18.88;;;12.30;92.30;;;;;;5053298;28;20354;-47
2021/09/19 04:40:06;;;;;;;28.85;17.65;;;12.30;92.30;;;;;;5053023;28;20029;-48
2021/09/19 04:42:31;;;;;;;26.27;17.58;;;12.20;92.50;;;;;;5051697;28;20085;-48
2021/09/19 04:44:57;;;;;;;27.58;18.30;;;12.20;92.50;;;;;;5053032;28;20053;-50
2021/09/19 04:47:23;;;;;;;21.88;15.82;;;12.20;92.60;;;;;;5051657;28;20032;-47
2021/09/19 04:49:48;;;;;;;26.17;18.50;;;12.30;92.40;;;;;;5053148;28;20192;-47
2021/09/19 04:52:14;;;;;;;24.77;17.85;;;12.30;92.20;;;;;;5052786;28;20078;-48
2021/09/19 04:54:40;;;;;;;25.30;17.02;;;12.20;92.40;;;;;;5052745;28;20075;-47
2021/09/19 04:57:05;;;;;;;26.00;17.15;;;12.10;92.50;;;;;;5052719;28;20357;-48
2021/09/19 04:59:31;;;;;;;24.23;17.50;;;12.10;92.70;;;;;;5053007;28;20048;-48
2021/09/19 05:01:57;;;;;;;29.27;18.30;;;12.20;92.90;;;;;;5052868;28;20057;-51
2021/09/19 05:04:22;;;;;;;30.95;18.73;;;12.10;93.00;;;;;;5052637;28;20029;-47
2021/09/19 05:06:48;;;;;;;29.63;18.33;;;12.20;92.80;;;;;;5053375;28;20095;-47
2021/09/19 05:09:13;;;;;;;26.10;18.92;;;12.30;92.80;;;;;;5052919;28;20117;-47
2021/09/19 05:11:39;;;;;;;31.65;19.35;;;12.30;92.60;;;;;;5053041;28;20060;-47
2021/09/19 05:14:05;;;;;;;30.70;19.23;;;12.30;92.40;;;;;;5052558;28;20025;-48
2021/09/19 05:16:31;;;;;;;26.55;17.40;;;12.20;92.50;;;;;;5052597;28;20032;-48
2021/09/19 05:18:57;;;;;;;25.70;17.58;;;12.10;92.80;;;;;;5052327;28;20555;-49
2021/09/19 05:21:23;;;;;;;28.05;18.70;;;12.20;92.70;;;;;;5052824;28;20503;-49
2021/09/19 05:23:49;;;;;;;26.95;17.52;;;12.20;92.70;;;;;;5052748;28;20100;-47
2021/09/19 05:26:15;;;;;;;29.00;18.58;;;12.20;92.80;;;;;;5052416;28;20121;-48
2021/09/19 05:28:41;;;;;;;24.13;17.15;;;12.10;92.80;;;;;;5052476;28;20022;-47
2021/09/19 05:31:06;;;;;;;22.10;16.02;;;12.20;92.80;;;;;;5052521;28;20095;-46
2021/09/19 05:33:32;;;;;;;27.13;17.17;;;12.20;92.70;;;;;;5052356;28;20481;-47
2021/09/19 05:35:58;;;;;;;32.78;19.35;;;12.10;92.80;;;;;;5052417;28;20033;-49
2021/09/19 05:38:23;;;;;;;26.00;19.15;;;12.20;92.80;;;;;;5054212;28;20029;-51
2021/09/19 05:40:49;;;;;;;28.63;18.42;;;12.20;92.60;;;;;;5056234;28;20024;-47
2021/09/19 05:43:15;;;;;;;29.13;18.17;;;12.20;92.60;;;;;;5055096;28;20029;-48
2021/09/19 05:45:40;;;;;;;33.30;18.75;;;12.30;92.60;;;;;;5056437;28;20025;-52
2021/09/19 05:48:06;;;;;;;23.67;17.13;;;12.30;92.40;;;;;;5056297;28;20534;-49
2021/09/19 05:50:32;;;;;;;27.15;17.55;;;12.20;92.40;;;;;;5056285;28;20477;-47
2021/09/19 05:52:58;;;;;;;24.60;18.08;;;12.20;92.50;;;;;;5056164;28;20029;-47
2021/09/19 05:55:23;;;;;;;23.90;17.48;;;12.20;92.40;;;;;;5056348;28;20365;-51
2021/09/19 05:57:49;;;;;;;30.92;19.42;;;12.20;92.40;;;;;;5056018;28;20155;-47
2021/09/19 06:00:15;;;;;;;30.15;19.45;;;12.30;92.30;;;;;;5056057;28;20499;-46
2021/09/19 06:02:40;;;;;;;26.05;18.02;;;12.30;92.10;;;;;;5055774;28;20021;-47
2021/09/19 06:05:07;;;;;;;29.02;17.45;;;12.30;92.20;;;;;;5056422;28;20072;-48
2021/09/19 06:07:33;;;;;;;22.45;16.60;;;12.30;92.30;;;;;;5055768;28;20479;-47
2021/09/19 06:09:59;;;;;;;22.30;16.10;;;12.30;92.30;;;;;;5056109;28;20052;-48
2021/09/19 06:12:25;;;;;;;22.42;16.17;;;12.30;92.30;;;;;;5055740;28;20151;-46
2021/09/19 06:14:52;;;;;;;27.02;18.13;;;12.20;92.40;;;;;;5055873;28;20033;-47
2021/09/19 06:17:20;;;;;;;23.13;16.58;;;12.20;92.30;;;;;;5055482;28;20123;-48
2021/09/19 06:19:49;;;;;;;26.10;16.95;;;12.30;92.30;;;;;;5056235;28;20036;-46
2021/09/19 06:22:15;;;;;;;27.92;17.73;;;12.40;92.10;;;;;;5055677;28;20033;-47
2021/09/19 06:24:41;;;;;;;25.48;17.33;;;12.50;91.60;;;;;;5055500;28;20100;-49
2021/09/19 06:27:07;;;;;;;24.55;16.27;;;12.60;91.40;;;;;;5055691;28;20028;-48
2021/09/19 06:29:33;;;;;;;21.13;15.48;;;12.60;90.90;;;;;;5055414;28;20377;-47
2021/09/19 06:31:58;;;;;;;19.45;15.25;;;12.80;90.60;;;;;;5055355;28;20105;-49
2021/09/19 06:34:24;;;;;;;19.77;15.18;;;12.90;90.10;;;;;;5055357;28;20033;-49
2021/09/19 06:36:50;;;;;;;19.48;14.75;;;13.00;89.80;;;;;;5055677;28;20033;-49
2021/09/19 06:39:16;;;;;;;19.15;14.23;;;13.20;89.50;;;;;;5055329;28;20029;-49
2021/09/19 06:41:42;;;;;;;20.83;14.25;;;13.30;89.30;;;;;;5055396;28;20068;-50
2021/09/19 06:44:07;;;;;;;22.92;14.18;;;13.30;88.80;;;;;;5055211;28;20051;-47
2021/09/19 06:46:33;;;;;;;14.35;11.48;;;13.30;88.80;;;;;;5055494;28;20447;-48
2021/09/19 06:49:02;;;;;;;15.48;12.45;;;13.40;88.60;;;;;;5055463;28;20071;-49
2021/09/19 06:51:28;;;;;;;16.73;12.45;;;13.30;88.90;;;;;;5055749;28;20036;-49
2021/09/19 06:53:54;;;;;;;15.90;12.27;;;13.40;89.00;;;;;;5055016;28;20028;-48
2021/09/19 06:56:21;;;;;;;14.00;10.80;;;13.60;88.60;;;;;;5054906;28;20033;-51
2021/09/19 06:58:47;;;;;;;17.35;12.20;;;13.70;87.80;;;;;;5055830;28;20466;-48
2021/09/19 07:01:15;;;;;;;15.32;12.68;;;13.70;87.60;;;;;;5054734;28;20029;-49
2021/09/19 07:03:41;;;;;;;14.70;12.25;;;13.70;87.80;;;;;;5055058;28;20017;-50
2021/09/19 07:06:07;;;;;;;14.77;11.57;;;13.80;87.50;;;;;;5054769;28;20032;-49
2021/09/19 07:08:32;;;;;;;18.50;12.77;;;13.70;88.00;;;;;;5055106;28;20025;-50
2021/09/19 07:10:58;;;;;;;11.60;10.15;;;13.80;88.10;;;;;;5054670;28;20025;-48
2021/09/19 07:13:26;;;;;;;16.65;10.18;;;13.90;87.50;;;;;;5054658;28;20017;-47
2021/09/19 07:15:53;;;;;;;13.75;10.30;;;14.00;87.50;;;;;;5054767;28;20096;-50
2021/09/19 07:18:23;;;;;;;17.25;10.80;;;14.20;87.10;;;;;;5054466;28;20124;-49
2021/09/19 07:20:49;;;;;;;13.05;10.80;;;14.30;86.60;;;;;;5054349;28;20056;-50
2021/09/19 07:23:15;;;;;;;13.95;10.43;;;14.40;86.30;;;;;;5054841;28;20031;-49
2021/09/19 07:25:42;;;;;;;16.15;11.52;;;14.40;86.20;;;;;;5054600;28;20033;-48
2021/09/19 07:28:08;;;;;;;13.57;10.05;;;14.40;86.00;;;;;;5053055;28;20017;-52
2021/09/19 07:30:35;;;;;;;14.45;10.23;;;14.50;86.20;;;;;;5054547;28;20029;-53
2021/09/19 07:33:01;;;;;;;13.93;10.20;;;14.40;86.50;;;;;;5054066;28;20564;-51
2021/09/19 07:35:27;;;;;;;11.85;8.85;;;14.50;86.20;;;;;;5052852;28;20037;-50
2021/09/19 07:37:54;;;;;;;11.30;9.73;;;14.50;86.10;;;;;;5054088;28;20037;-48
2021/09/19 07:40:21;;;;;;;15.25;10.00;;;14.70;85.40;;;;;;5052889;28;20029;-50
2021/09/19 07:42:47;;;;;;;11.80;9.68;;;14.80;85.60;;;;;;5052756;28;20048;-48
2021/09/19 07:45:14;;;;;;;14.32;9.02;;;14.80;85.40;;;;;;5054238;28;20028;-48
2021/09/19 07:47:40;;;;;;;10.27;8.90;;;14.90;84.90;;;;;;5052777;28;20104;-48
2021/09/19 07:50:07;;;;;;;11.50;9.20;;;15.00;84.80;;;;;;5053817;28;20499;-48
2021/09/19 07:52:33;;;;;;;14.15;9.50;;;15.30;83.90;;;;;;5054604;28;20033;-51
2021/09/19 07:54:59;;;;;;;11.75;9.10;;;15.20;83.80;;;;;;5053913;28;20047;-48
2021/09/19 07:57:25;;;;;;;12.80;9.77;;;15.30;84.40;;;;;;5053789;28;20370;-50
2021/09/19 07:59:53;;;;;;;11.63;8.93;;;15.30;83.40;;;;;;5053820;28;20100;-52
2021/09/19 08:02:19;;;;;;;13.55;8.88;;;15.30;83.80;;;;;;5053971;28;20029;-49
2021/09/19 08:04:45;;;;;;;11.35;9.05;;;15.30;84.20;;;;;;5053599;28;20028;-49
2021/09/19 08:07:11;;;;;;;11.27;8.63;;;15.30;84.00;;;;;;5053364;28;20017;-50
2021/09/19 08:09:37;;;;;;;11.27;8.95;;;15.50;83.80;;;;;;5053746;28;20028;-51
2021/09/19 08:12:03;;;;;;;9.77;8.63;;;15.70;83.20;;;;;;5053467;28;20075;-52
2021/09/19 08:14:28;;;;;;;11.82;9.20;;;15.80;82.70;;;;;;5053927;28;20028;-49
2021/09/19 08:16:54;;;;;;;10.50;8.55;;;15.90;82.50;;;;;;5053552;28;20438;-49
2021/09/19 08:19:21;;;;;;;8.73;7.65;;;15.90;82.30;;;;;;5053157;28;20040;-49
2021/09/19 08:21:47;;;;;;;10.07;8.30;;;15.90;82.40;;;;;;5053813;28;20029;-47
2021/09/19 08:24:14;;;;;;;10.85;7.53;;;16.00;81.80;;;;;;5053484;28;20025;-50
2021/09/19 08:26:40;;;;;;;8.60;6.88;;;16.00;81.10;;;;;;5053717;28;20032;-49
2021/09/19 08:29:07;;;;;;;7.95;6.50;;;16.20;80.70;;;;;;5053754;28;20394;-48
2021/09/19 08:31:33;;;;;;;8.02;6.88;;;16.30;79.60;;;;;;5053117;28;20086;-49
2021/09/19 08:33:58;;;;;;;8.40;6.55;;;16.50;79.00;;;;;;5053428;28;20029;-51
2021/09/19 08:36:25;;;;;;;10.18;7.28;;;16.70;78.50;;;;;;5053912;28;20033;-48
2021/09/19 08:38:51;;;;;;;12.85;7.03;;;16.80;78.40;;;;;;5053112;28;20071;-50
2021/09/19 08:41:17;;;;;;;9.88;6.90;;;17.10;77.00;;;;;;5053013;28;20021;-52
2021/09/19 08:43:44;;;;;;;11.15;7.72;;;17.30;76.20;;;;;;5052964;28;20483;-48
2021/09/19 08:46:13;;;;;;;10.35;6.72;;;17.40;75.30;;;;;;5053455;28;20071;-51
2021/09/19 08:48:39;;;;;;;9.48;8.02;;;17.40;75.10;;;;;;5053533;28;20048;-49
2021/09/19 08:51:05;;;;;;;9.32;7.22;;;17.30;75.60;;;;;;5052970;28;20416;-49
2021/09/19 08:53:31;;;;;;;10.07;7.10;;;17.40;74.70;;;;;;5052941;28;20024;-49
2021/09/19 08:55:58;;;;;;;9.40;7.88;;;17.50;74.20;;;;;;5053466;28;20021;-49
2021/09/19 08:58:23;;;;;;;8.40;6.70;;;17.60;73.70;;;;;;5052703;28;20099;-50
2021/09/19 09:00:49;;;;;;;9.45;6.63;;;17.60;74.30;;;;;;5052583;28;20142;-47
2021/09/19 09:03:20;;;;;;;6.28;5.65;;;17.80;74.00;;;;;;5052426;28;20025;-48
2021/09/19 09:06:03;;;;;;;9.45;5.95;;;18.20;72.70;;;;;;5052822;28;20050;-50
2021/09/19 09:08:31;;;;;;;8.35;6.50;;;18.30;71.70;;;;;;5052479;28;20021;-49
2021/09/19 09:10:59;;;;;;;7.57;5.82;;;18.50;70.90;;;;;;5052957;28;20449;-50
2021/09/19 09:13:28;;;;;;;6.90;5.55;;;18.10;71.40;;;;;;5054886;28;20029;-48
2021/09/19 09:16:11;;;;;;;9.45;6.07;;;17.80;72.60;;;;;;5056734;28;20029;-52
2021/09/19 09:18:39;;;;;;;9.27;5.68;;;18.00;72.00;;;;;;5056600;28;20053;-51
2021/09/19 09:21:04;;;;;;;7.38;5.82;;;17.90;72.70;;;;;;5056736;28;20025;-50
2021/09/19 09:23:32;;;;;;;9.73;6.78;;;17.90;72.20;;;;;;5056575;28;20170;-52
2021/09/19 09:26:16;;;;;;;10.50;6.47;;;17.80;72.10;;;;;;5055406;28;20023;-48
2021/09/19 09:29:06;;;;;;;8.93;6.53;;;17.70;72.70;;;;;;5056965;28;20021;-49
2021/09/19 09:31:36;;;;;;;;;;;17.80;72.20;;;;;;5056915;28;20079;-49
2021/09/19 09:34:04;;;;;;;9.93;6.78;;;17.90;72.10;;;;;;5056442;28;19936;-51
2021/09/19 09:36:30;;;;;;;8.50;6.50;;;17.90;71.90;;;;;;5055248;28;20091;-50
2021/09/19 09:38:56;;;;;;;8.75;6.38;;;18.20;71.20;;;;;;5056477;28;20393;-47
2021/09/19 09:41:40;;;;;;;7.65;6.25;;;18.20;71.00;;;;;;5056392;28;20029;-49
2021/09/19 09:44:35;;;;;;;10.07;6.22;;;18.60;69.70;;;;;;5056749;28;20024;-51
2021/09/19 09:47:23;;;;;;;8.23;6.40;;;18.20;69.70;;;;;;5056324;28;20024;-51
2021/09/19 09:49:51;;;;;;;10.32;6.25;;;18.20;70.30;;;;;;5055509;28;20037;-48
2021/09/19 09:52:36;;;;;;;7.78;5.95;;;18.60;69.20;;;;;;5056068;28;20526;-47
2021/09/19 09:55:14;;;;;;;7.95;6.15;;;18.80;67.50;;;;;;5056038;28;20043;-48
2021/09/19 09:58:08;;;;;;;9.57;7.15;;;18.80;67.20;;;;;;5055885;28;20040;-48
2021/09/19 10:00:35;;;;;;;11.25;7.20;;;18.80;66.60;;;;;;5056299;28;20396;-48
2021/09/19 10:03:01;;;;;;;9.10;7.03;;;19.00;67.00;;;;;;5055809;28;20021;-47
2021/09/19 10:05:28;;;;;;;9.43;6.00;;;18.80;68.30;;;;;;5056192;28;20051;-49
2021/09/19 10:07:55;;;;;;;7.95;6.53;;;19.30;66.90;;;;;;5054849;28;20107;-49
2021/09/19 10:10:23;;;;;;;8.18;6.32;;;19.60;64.90;;;;;;5055996;28;20017;-49
2021/09/19 10:12:51;;;;;;;6.40;5.68;;;19.40;66.00;;;;;;5055552;28;20029;-50
2021/09/19 10:15:18;;;;;;;8.18;5.97;;;19.10;67.40;;;;;;5055521;28;20091;-49
2021/09/19 10:17:44;;;;;;;6.25;5.65;;;19.70;65.30;;;;;;5055321;28;20045;-48
2021/09/19 10:20:26;;;;;;;8.52;6.78;;;19.70;64.90;;;;;;5055065;28;20079;-48
2021/09/19 10:22:56;;;;;;;8.52;6.57;;;19.80;64.40;;;;;;5055566;28;20029;-48
2021/09/19 10:26:00;;;;;;;9.73;6.72;;;19.00;66.70;;;;;;5055190;28;20029;-49
2021/09/19 10:28:34;;;;;;;8.25;6.38;;;18.80;68.10;;;;;;5054804;28;20033;-48
2021/09/19 10:31:09;;;;;;;8.13;6.25;;;19.30;66.40;;;;;;5055708;28;20017;-48
2021/09/19 10:34:02;;;;;;;8.82;6.55;;;19.20;66.20;;;;;;5055261;28;20476;-49
2021/09/19 10:36:37;;;;;;;8.57;6.35;;;19.20;66.10;;;;;;5053449;28;20033;-51
2021/09/19 10:39:17;;;;;;;7.80;5.35;;;19.30;66.40;;;;;;5055145;28;20469;-47
2021/09/19 10:42:04;;;;;;;6.90;5.57;;;19.30;65.80;;;;;;5055231;28;20075;-48
2021/09/19 10:44:52;;;;;;;8.80;6.22;;;19.60;64.40;;;;;;5055695;28;20025;-49
2021/09/19 10:47:36;;;;;;;5.25;4.68;;;19.80;63.30;;;;;;5054067;28;20028;-47
2021/09/19 10:50:21;;;;;;;8.63;6.20;;;19.70;63.50;;;;;;5053649;28;20071;-48
2021/09/19 10:52:58;;;;;;;7.38;5.60;;;19.50;63.60;;;;;;5055023;28;20021;-48
2021/09/19 10:55:50;;;;;;;7.13;5.70;;;19.00;66.20;;;;;;5055203;28;20029;-49
2021/09/19 10:58:21;;;;;;;7.15;5.22;;;19.20;66.40;;;;;;5055270;28;20055;-49
2021/09/19 11:01:12;;;;;;;5.68;4.60;;;19.60;64.20;;;;;;5054849;28;20025;-49
2021/09/19 11:03:40;;;;;;;8.23;4.50;;;19.60;64.20;;;;;;5053691;28;20094;-49
2021/09/19 11:06:20;;;;;;;6.28;4.90;;;20.00;62.30;;;;;;5055220;28;20029;-50
2021/09/19 11:08:46;;;;;;;6.03;5.22;;;19.90;63.10;;;;;;5053653;28;20020;-50
2021/09/19 11:11:19;;;;;;;7.60;5.53;;;20.20;62.70;;;;;;5054811;28;20100;-51
2021/09/19 11:13:53;;;;;;;6.40;4.95;;;19.80;63.40;;;;;;5054647;28;20052;-51
2021/09/19 11:16:26;;;;;;;10.80;7.03;;;19.50;64.20;;;;;;5054843;28;20043;-48
2021/09/19 11:18:56;;;;;;;5.97;4.50;;;19.80;63.70;;;;;;5054525;28;20068;-47
2021/09/19 11:21:21;;;;;;;5.85;4.93;;;19.80;62.80;;;;;;5053312;28;20060;-49
2021/09/19 11:23:52;;;;;;;7.13;4.50;;;19.80;63.10;;;;;;5054677;28;20528;-50
2021/09/19 11:26:41;;;;;;;5.65;4.70;;;20.00;62.10;;;;;;5055012;28;20091;-49
2021/09/19 11:29:12;;;;;;;7.55;4.68;;;19.90;62.20;;;;;;5054696;28;20051;-50
2021/09/19 11:31:40;;;;;;;4.68;4.10;;;19.80;62.20;;;;;;5054426;28;20074;-51
2021/09/19 11:34:25;;;;;;;4.25;3.40;;;19.90;62.70;;;;;;5054536;28;20052;-51
2021/09/19 11:36:55;;;;;;;5.25;3.80;;;20.30;60.00;;;;;;5054259;28;20044;-48
2021/09/19 11:39:21;;;;;;;5.53;4.43;;;20.30;60.30;;;;;;5054443;28;20025;-50
2021/09/19 11:41:49;;;;;;;5.95;4.00;;;20.20;60.30;;;;;;5037192;28;20037;-49
2021/09/19 11:44:16;;;;;;;5.47;4.10;;;20.00;61.70;;;;;;5054566;28;20481;-50
2021/09/19 11:46:49;;;;;;;4.57;3.10;;;20.30;60.90;;;;;;5054323;28;20388;-48
2021/09/19 11:49:18;;;;;;;4.35;2.88;;;20.20;60.80;;;;;;5054327;28;20021;-48
2021/09/19 11:51:44;;;;;;;4.95;2.70;;;20.00;59.00;;;;;;5052553;28;20361;-53
2021/09/19 11:54:14;;;;;;;4.43;3.20;;;19.80;60.10;;;;;;5054148;28;20058;-48
2021/09/19 11:56:49;;;;;;;3.60;3.30;;;19.50;61.00;;;;;;5054210;28;20028;-49
2021/09/19 11:59:18;;;;;;;4.50;3.25;;;19.50;61.80;;;;;;5053130;28;20025;-52
2021/09/19 12:01:45;;;;;;;3.67;3.03;;;19.90;60.00;;;;;;5052509;28;20143;-50
2021/09/19 12:04:13;;;;;;;3.55;3.20;;;20.30;58.60;;;;;;5052630;28;20477;-48
2021/09/19 12:06:41;;;;;;;5.43;3.80;;;20.50;57.80;;;;;;5054233;28;20376;-49
2021/09/19 12:09:33;;;;;;;3.78;2.75;;;19.80;59.60;;;;;;5054704;28;20021;-52
2021/09/19 12:11:58;;;;;;;1.67;1.38;;;19.80;58.70;;;;;;5052917;28;20124;-53
2021/09/19 12:14:29;;;;;;;1.42;1.33;;;19.60;56.60;;;;;;5052570;28;20127;-50
2021/09/19 12:17:03;;;;;;;1.88;1.30;;;19.60;55.70;;;;;;5054263;28;20024;-50
2021/09/19 12:19:31;;;;;;;1.30;1.20;;;19.90;54.70;;;;;;5053606;28;20049;-49
2021/09/19 12:22:00;;;;;;;3.30;1.50;;;19.80;54.10;;;;;;5053492;28;20100;-48
2021/09/19 12:24:29;;;;;;;1.25;1.00;;;19.90;53.50;;;;;;5053612;28;20048;-52
2021/09/19 12:27:17;;;;;;;2.17;1.30;;;19.80;54.00;;;;;;5053637;28;20025;-49
2021/09/19 12:30:03;;;;;;;1.27;1.13;;;19.80;53.50;;;;;;5053513;28;20416;-49
2021/09/19 12:32:39;;;;;;;2.10;1.20;;;19.70;53.80;;;;;;5053498;28;20025;-48
2021/09/19 12:35:15;;;;;;;1.75;1.15;;;19.40;54.10;;;;;;5053686;28;20082;-50
2021/09/19 12:37:43;;;;;;;1.38;1.13;;;19.40;54.30;;;;;;5036862;28;20021;-49
2021/09/19 12:40:21;;;;;;;2.40;1.05;;;19.70;53.90;;;;;;5051724;28;20383;-49
2021/09/19 12:42:48;;;;;;;1.88;1.15;;;19.40;54.00;;;;;;5052599;28;20036;-48